createdAt,value
2023-05-16T00:00:17.328Z,48.35
2023-05-16T00:02:44.345Z,48.40
2023-05-16T00:05:14.790Z,48.31
2023-05-16T00:07:45.611Z,48.62
2023-05-16T00:10:12.409Z,48.26
2023-05-16T00:12:39.708Z,48.68
2023-05-16T00:15:08.905Z,48.58
2023-05-16T00:17:36.039Z,48.26
2023-05-16T00:20:11.244Z,48.52
2023-05-16T00:22:38.293Z,48.71
2023-05-16T00:25:08.074Z,48.53
2023-05-16T00:27:35.888Z,48.69
2023-05-16T00:30:03.681Z,48.53
2023-05-16T00:32:30.425Z,48.88
2023-05-16T00:34:57.314Z,48.67
2023-05-16T00:37:24.119Z,48.84
2023-05-16T00:39:51.013Z,48.72
2023-05-16T00:42:20.015Z,48.77
2023-05-16T00:44:47.471Z,48.51
2023-05-16T00:47:14.937Z,48.67
2023-05-16T00:49:42.066Z,48.89
2023-05-16T00:52:08.808Z,48.78
2023-05-16T00:54:36.230Z,48.73
2023-05-16T00:57:03.753Z,49.01
2023-05-16T00:59:30.921Z,48.82
2023-05-16T01:01:57.881Z,48.72
2023-05-16T01:04:24.816Z,49.04
2023-05-16T01:06:52.223Z,48.90
2023-05-16T01:09:19.683Z,49.21
2023-05-16T01:12:15.536Z,49.23
2023-05-16T01:15:00.674Z,49.01
2023-05-16T01:17:27.414Z,48.68
2023-05-16T01:20:00.472Z,48.77
2023-05-16T01:22:42.543Z,48.71
2023-05-16T01:25:50.854Z,48.71
2023-05-16T01:28:17.925Z,49.02
2023-05-16T01:30:45.171Z,49.12
2023-05-16T01:33:12.653Z,48.83
2023-05-16T01:35:55.684Z,49.06
2023-05-16T01:38:26.839Z,48.91
2023-05-16T01:41:00.403Z,48.84
2023-05-16T01:43:41.339Z,48.81
2023-05-16T01:46:10.985Z,48.63
2023-05-16T01:48:39.852Z,48.67
2023-05-16T01:51:06.598Z,48.77
2023-05-16T01:53:39.619Z,48.56
2023-05-16T01:56:10.423Z,48.85
2023-05-16T01:58:37.185Z,48.52
2023-05-16T02:01:05.054Z,48.50
2023-05-16T02:03:32.075Z,48.54
2023-05-16T02:05:59.080Z,48.28
2023-05-16T02:08:26.733Z,48.14
2023-05-16T02:10:53.603Z,47.95
2023-05-16T02:13:20.424Z,48.31
2023-05-16T02:15:47.359Z,48.13
2023-05-16T02:18:14.149Z,48.17
2023-05-16T02:20:41.337Z,47.98
2023-05-16T02:23:08.246Z,47.95
2023-05-16T02:25:35.013Z,47.70
2023-05-16T02:28:01.863Z,47.78
2023-05-16T02:30:28.734Z,47.65
2023-05-16T02:32:55.789Z,47.46
2023-05-16T02:35:22.587Z,47.16
2023-05-16T02:37:49.434Z,47.06
2023-05-16T02:40:16.337Z,47.31
2023-05-16T02:42:43.050Z,47.13
2023-05-16T02:45:10.412Z,46.97
2023-05-16T02:47:37.617Z,47.16
2023-05-16T02:50:05.210Z,46.96
2023-05-16T02:52:33.393Z,46.56
2023-05-16T02:55:20.320Z,46.49
2023-05-16T02:57:47.040Z,46.38
2023-05-16T03:00:16.157Z,46.35
2023-05-16T03:02:44.259Z,46.37
2023-05-16T03:05:11.572Z,46.13
2023-05-16T03:07:38.759Z,46.26
2023-05-16T03:10:06.268Z,45.39
2023-05-16T03:12:33.133Z,45.51
2023-05-16T03:14:59.868Z,44.79
2023-05-16T03:17:26.759Z,44.46
2023-05-16T03:19:54.397Z,44.26
2023-05-16T03:22:21.252Z,43.51
2023-05-16T03:24:48.105Z,43.31
2023-05-16T03:27:14.992Z,42.20
2023-05-16T03:29:41.925Z,42.04
2023-05-16T03:32:09.849Z,41.62
2023-05-16T03:34:37.302Z,41.49
2023-05-16T03:37:04.310Z,41.22
2023-05-16T03:39:31.161Z,40.66
2023-05-16T03:41:58.039Z,40.65
2023-05-16T03:44:24.885Z,40.63
2023-05-16T03:46:52.973Z,40.69
2023-05-16T03:49:21.473Z,40.06
2023-05-16T03:51:48.272Z,39.82
2023-05-16T03:54:15.288Z,40.09
2023-05-16T03:56:42.139Z,39.86
2023-05-16T03:59:08.905Z,40.02
2023-05-16T04:01:35.671Z,39.73
2023-05-16T04:04:02.683Z,39.63
2023-05-16T04:06:29.477Z,39.94
2023-05-16T04:08:56.242Z,40.06
2023-05-16T04:11:23.139Z,39.72
2023-05-16T04:13:50.161Z,39.41
2023-05-16T04:16:16.961Z,39.76
2023-05-16T04:18:43.950Z,39.75
2023-05-16T04:21:15.125Z,39.70
2023-05-16T04:23:42.060Z,39.89
2023-05-16T04:26:08.951Z,39.62
2023-05-16T04:28:36.070Z,39.69
2023-05-16T04:31:03.307Z,39.72
2023-05-16T04:33:30.332Z,39.90
2023-05-16T04:35:58.909Z,40.01
2023-05-16T04:38:26.057Z,39.92
2023-05-16T04:40:53.483Z,40.17
2023-05-16T04:43:20.268Z,40.07
2023-05-16T04:45:47.273Z,40.36
2023-05-16T04:48:14.187Z,40.12
2023-05-16T04:50:41.394Z,40.11
2023-05-16T04:53:08.125Z,40.33
2023-05-16T04:55:34.959Z,40.20
2023-05-16T04:58:01.802Z,40.21
2023-05-16T05:00:28.978Z,40.14
2023-05-16T05:02:56.119Z,40.14
2023-05-16T05:05:23.186Z,40.22
2023-05-16T05:07:50.055Z,40.24
2023-05-16T05:10:17.104Z,40.30
2023-05-16T05:12:43.890Z,40.43
2023-05-16T05:15:10.875Z,40.75
2023-05-16T05:17:38.116Z,40.81
2023-05-16T05:20:08.848Z,40.46
2023-05-16T05:22:35.605Z,40.76
2023-05-16T05:25:02.523Z,40.74
2023-05-16T05:27:29.249Z,40.80
2023-05-16T05:29:56.296Z,40.79
2023-05-16T05:32:23.094Z,40.72
2023-05-16T05:34:49.888Z,41.15
2023-05-16T05:37:16.694Z,40.78
2023-05-16T05:39:43.653Z,41.02
2023-05-16T05:42:10.529Z,41.23
2023-05-16T05:44:37.997Z,40.81
2023-05-16T05:47:06.129Z,41.21
2023-05-16T05:49:32.910Z,41.04
2023-05-16T05:51:59.679Z,40.89
2023-05-16T05:54:26.574Z,41.05
2023-05-16T05:56:53.448Z,41.23
2023-05-16T05:59:20.282Z,41.23
2023-05-16T06:01:47.274Z,41.16
2023-05-16T06:04:14.066Z,41.41
2023-05-16T06:06:40.942Z,41.27
2023-05-16T06:09:07.969Z,41.21
2023-05-16T06:11:34.841Z,40.99
2023-05-16T06:14:01.756Z,41.57
2023-05-16T06:16:28.819Z,41.73
2023-05-16T06:18:55.593Z,41.80
2023-05-16T06:21:22.478Z,41.72
2023-05-16T06:23:49.335Z,41.63
2023-05-16T06:26:16.131Z,41.70
2023-05-16T06:28:43.028Z,41.91
2023-05-16T06:31:10.622Z,41.77
2023-05-16T06:33:37.423Z,41.85
2023-05-16T06:36:04.941Z,42.08
2023-05-16T06:38:31.693Z,41.74
2023-05-16T06:40:58.662Z,42.19
2023-05-16T06:43:25.610Z,41.85
2023-05-16T06:45:52.379Z,41.89
2023-05-16T06:48:19.934Z,42.02
2023-05-16T06:50:51.200Z,41.85
2023-05-16T06:53:18.975Z,41.98
2023-05-16T06:55:46.178Z,42.13
2023-05-16T06:58:13.031Z,42.19
2023-05-16T07:00:40.050Z,41.83
2023-05-16T07:03:07.118Z,42.09
2023-05-16T07:05:34.029Z,41.69
2023-05-16T07:08:01.045Z,41.49
2023-05-16T07:10:27.875Z,41.37
2023-05-16T07:12:55.709Z,41.05
2023-05-16T07:15:22.805Z,41.62
2023-05-16T07:17:51.011Z,41.85
2023-05-16T07:20:17.964Z,41.97
2023-05-16T07:22:44.960Z,42.09
2023-05-16T07:25:13.058Z,42.15
2023-05-16T07:27:45.223Z,42.00
2023-05-16T07:30:12.952Z,42.05
2023-05-16T07:32:40.354Z,41.66
2023-05-16T07:35:08.078Z,41.15
2023-05-16T07:37:34.880Z,40.68
2023-05-16T07:40:03.740Z,40.48
2023-05-16T07:42:31.673Z,40.24
2023-05-16T07:44:58.479Z,40.21
2023-05-16T07:47:26.963Z,39.59
2023-05-16T07:49:53.869Z,40.07
2023-05-16T07:52:21.191Z,40.29
2023-05-16T07:54:48.324Z,39.93
2023-05-16T07:57:15.731Z,39.43
2023-05-16T07:59:43.393Z,39.00
2023-05-16T08:02:10.894Z,39.40
2023-05-16T08:04:38.732Z,39.27
2023-05-16T08:07:06.249Z,38.52
2023-05-16T08:09:35.494Z,38.10
2023-05-16T08:12:03.980Z,37.86
2023-05-16T08:14:34.157Z,37.96
2023-05-16T08:17:00.970Z,37.33
2023-05-16T08:19:28.016Z,36.94
2023-05-16T08:21:55.269Z,37.24
2023-05-16T08:24:22.098Z,37.08
2023-05-16T08:26:48.912Z,37.33
2023-05-16T08:29:15.943Z,36.54
2023-05-16T08:31:42.842Z,36.26
2023-05-16T08:34:10.607Z,36.84
2023-05-16T08:36:38.152Z,35.59
2023-05-16T08:39:05.325Z,35.11
2023-05-16T08:41:32.250Z,35.19
2023-05-16T08:43:59.171Z,35.20
2023-05-16T08:46:26.134Z,35.18
2023-05-16T08:48:53.526Z,35.24
2023-05-16T08:51:21.216Z,35.53
2023-05-16T08:53:54.694Z,35.37
2023-05-16T08:56:22.627Z,35.10
2023-05-16T08:58:50.705Z,34.62
2023-05-16T09:01:17.620Z,34.57
2023-05-16T09:03:44.589Z,34.95
2023-05-16T09:06:11.538Z,35.34
2023-05-16T09:08:38.348Z,34.93
2023-05-16T09:11:05.217Z,35.06
2023-05-16T09:13:31.989Z,34.13
2023-05-16T09:16:15.720Z,34.26
2023-05-16T09:19:01.012Z,33.85
2023-05-16T09:21:29.537Z,33.47
2023-05-16T09:23:56.422Z,33.45
2023-05-16T09:26:23.209Z,33.46
2023-05-16T09:28:53.662Z,33.87
2023-05-16T09:31:26.997Z,34.04
2023-05-16T09:33:56.850Z,33.39
2023-05-16T09:36:23.763Z,33.86
2023-05-16T09:38:51.772Z,33.92
2023-05-16T09:41:18.704Z,34.13
2023-05-16T09:43:45.925Z,34.12
2023-05-16T09:46:16.217Z,34.24
2023-05-16T09:48:47.230Z,34.32
2023-05-16T09:51:14.369Z,33.48
2023-05-16T09:53:42.138Z,33.85
2023-05-16T09:56:11.823Z,34.52
2023-05-16T09:58:39.672Z,34.58
2023-05-16T10:01:07.382Z,35.12
2023-05-16T10:03:41.851Z,34.56
2023-05-16T10:06:09.221Z,34.58
2023-05-16T10:08:37.084Z,34.27
2023-05-16T10:11:05.111Z,34.06
2023-05-16T10:13:33.207Z,33.36
2023-05-16T10:16:00.973Z,32.80
2023-05-16T10:18:31.964Z,32.44
2023-05-16T10:21:04.623Z,32.99
2023-05-16T10:23:31.606Z,32.34
2023-05-16T10:25:58.502Z,31.81
2023-05-16T10:28:25.699Z,31.57
2023-05-16T10:30:52.684Z,31.89
2023-05-16T10:33:20.028Z,31.73
2023-05-16T10:35:46.962Z,31.97
2023-05-16T10:38:15.564Z,31.94
2023-05-16T10:40:42.391Z,31.73
2023-05-16T10:43:09.412Z,31.72
2023-05-16T10:45:44.653Z,32.18
2023-05-16T10:48:12.716Z,32.55
2023-05-16T10:50:41.476Z,32.02
2023-05-16T10:53:33.999Z,32.30
2023-05-16T10:56:03.388Z,31.98
2023-05-16T10:58:39.631Z,32.65
2023-05-16T11:01:25.232Z,32.54
2023-05-16T11:03:58.672Z,31.75
2023-05-16T11:06:44.451Z,32.04
2023-05-16T11:09:11.574Z,31.91
2023-05-16T11:11:49.516Z,32.42
2023-05-16T11:14:26.257Z,32.25
2023-05-16T11:17:15.470Z,32.88
2023-05-16T11:19:59.939Z,31.40
2023-05-16T11:22:28.874Z,31.23
2023-05-16T11:24:57.299Z,30.96
2023-05-16T11:27:32.126Z,30.75
2023-05-16T11:30:12.210Z,30.77
2023-05-16T11:32:40.019Z,31.14
2023-05-16T11:35:09.374Z,31.11
2023-05-16T11:37:37.069Z,31.36
2023-05-16T11:40:07.291Z,31.69
2023-05-16T11:42:38.520Z,31.01
2023-05-16T11:45:07.371Z,30.43
2023-05-16T11:47:34.424Z,30.47
2023-05-16T11:50:01.251Z,29.17
2023-05-16T11:52:28.662Z,29.17
2023-05-16T11:54:57.594Z,30.10
2023-05-16T11:57:24.459Z,29.30
2023-05-16T11:59:52.057Z,30.25
2023-05-16T12:02:18.888Z,29.24
2023-05-16T12:04:50.681Z,28.38
2023-05-16T12:07:17.741Z,28.78
2023-05-16T12:09:53.648Z,28.56
2023-05-16T12:12:23.408Z,28.14
2023-05-16T12:14:50.182Z,28.04
2023-05-16T12:17:17.050Z,27.84
2023-05-16T12:19:44.169Z,27.25
2023-05-16T12:22:20.592Z,26.92
2023-05-16T12:24:47.482Z,26.97
2023-05-16T12:27:14.318Z,26.78
2023-05-16T12:29:41.326Z,26.66
2023-05-16T12:32:08.572Z,25.58
2023-05-16T12:34:35.398Z,25.60
2023-05-16T12:37:04.771Z,25.70
2023-05-16T12:39:37.389Z,24.70
2023-05-16T12:42:08.055Z,24.68
2023-05-16T12:44:36.163Z,24.61
2023-05-16T12:47:03.195Z,24.83
2023-05-16T12:49:30.040Z,23.90
2023-05-16T12:52:00.949Z,23.97
2023-05-16T12:54:27.805Z,24.02
2023-05-16T12:56:54.715Z,23.40
2023-05-16T12:59:21.488Z,23.00
2023-05-16T13:01:48.502Z,22.59
2023-05-16T13:04:20.004Z,22.93
2023-05-16T13:06:58.266Z,23.28
2023-05-16T13:09:29.950Z,23.71
2023-05-16T13:11:59.838Z,24.34
2023-05-16T13:14:27.378Z,24.79
2023-05-16T13:16:54.230Z,24.79
2023-05-16T13:19:23.257Z,25.45
2023-05-16T13:21:50.214Z,25.66
2023-05-16T13:24:17.084Z,26.51
2023-05-16T13:26:43.851Z,26.80
2023-05-16T13:29:12.088Z,27.55
2023-05-16T13:31:38.956Z,27.67
2023-05-16T13:34:06.100Z,28.14
2023-05-16T13:36:41.469Z,28.50
2023-05-16T13:39:16.543Z,28.64
2023-05-16T13:41:44.226Z,28.94
2023-05-16T13:44:11.794Z,29.32
2023-05-16T13:46:38.713Z,29.27
2023-05-16T13:49:07.241Z,29.84
2023-05-16T13:51:34.060Z,29.62
2023-05-16T13:54:02.648Z,30.04
2023-05-16T13:56:29.448Z,29.99
2023-05-16T13:59:02.515Z,30.12
2023-05-16T14:01:35.428Z,30.48
2023-05-16T14:04:02.842Z,30.29
2023-05-16T14:06:29.681Z,30.67
2023-05-16T14:08:56.925Z,30.80
2023-05-16T14:11:29.105Z,31.00
2023-05-16T14:13:57.122Z,31.25
2023-05-16T14:16:23.985Z,31.63
2023-05-16T14:18:51.024Z,31.69
2023-05-16T14:21:18.140Z,31.86
2023-05-16T14:23:44.919Z,31.52
2023-05-16T14:26:11.824Z,31.71
2023-05-16T14:28:38.838Z,32.01
2023-05-16T14:31:06.062Z,32.14
2023-05-16T14:33:33.394Z,32.15
2023-05-16T14:36:00.373Z,32.47
2023-05-16T14:38:28.266Z,32.19
2023-05-16T14:40:55.109Z,32.32
2023-05-16T14:43:21.951Z,32.80
2023-05-16T14:45:49.141Z,32.50
2023-05-16T14:48:17.431Z,32.75
2023-05-16T14:50:44.566Z,33.05
2023-05-16T14:53:11.546Z,33.13
2023-05-16T14:55:38.489Z,32.71
2023-05-16T14:58:06.107Z,33.43
2023-05-16T15:00:33.095Z,32.92
2023-05-16T15:03:00.125Z,33.38
2023-05-16T15:05:29.762Z,33.59
2023-05-16T15:07:56.642Z,33.31
2023-05-16T15:10:23.475Z,33.49
2023-05-16T15:12:50.378Z,33.17
2023-05-16T15:15:17.234Z,33.36
2023-05-16T15:17:44.133Z,33.65
2023-05-16T15:20:11.925Z,33.70
2023-05-16T15:22:39.353Z,33.86
2023-05-16T15:25:07.611Z,33.74
2023-05-16T15:27:34.764Z,33.74
2023-05-16T15:30:01.574Z,34.26
2023-05-16T15:32:28.439Z,34.04
2023-05-16T15:34:55.470Z,34.63
2023-05-16T15:37:22.296Z,34.71
2023-05-16T15:39:49.161Z,34.57
2023-05-16T15:42:16.047Z,34.64
2023-05-16T15:44:42.854Z,34.74
2023-05-16T15:47:10.401Z,34.90
2023-05-16T15:49:37.398Z,34.75
2023-05-16T15:52:04.757Z,34.58
2023-05-16T15:54:31.723Z,35.21
2023-05-16T15:56:58.662Z,35.20
2023-05-16T15:59:25.533Z,35.31
2023-05-16T16:01:52.586Z,35.28
2023-05-16T16:04:23.217Z,35.14
2023-05-16T16:06:50.459Z,35.13
2023-05-16T16:09:17.577Z,35.42
2023-05-16T16:11:44.540Z,35.47
2023-05-16T16:14:11.889Z,35.20
2023-05-16T16:16:40.557Z,35.13
2023-05-16T16:19:08.373Z,35.53
2023-05-16T16:21:36.246Z,35.23
2023-05-16T16:24:03.281Z,35.62
2023-05-16T16:26:32.004Z,35.60
2023-05-16T16:28:59.437Z,35.92
2023-05-16T16:31:26.284Z,35.96
2023-05-16T16:33:53.251Z,35.78
2023-05-16T16:36:20.056Z,36.10
2023-05-16T16:38:46.959Z,36.31
2023-05-16T16:41:15.526Z,35.81
2023-05-16T16:43:42.373Z,36.27
2023-05-16T16:46:09.419Z,35.99
2023-05-16T16:48:36.847Z,35.85
2023-05-16T16:51:03.898Z,36.40
2023-05-16T16:53:32.733Z,35.93
2023-05-16T16:55:59.736Z,36.47
2023-05-16T16:58:26.653Z,36.34
2023-05-16T17:00:53.495Z,36.41
2023-05-16T17:03:21.575Z,36.06
2023-05-16T17:05:48.668Z,36.56
2023-05-16T17:08:15.605Z,36.38
2023-05-16T17:10:42.674Z,36.12
2023-05-16T17:13:12.307Z,36.61
2023-05-16T17:15:39.173Z,36.74
2023-05-16T17:18:08.942Z,36.22
2023-05-16T17:20:36.896Z,36.38
2023-05-16T17:23:03.820Z,36.35
2023-05-16T17:25:30.888Z,36.36
2023-05-16T17:27:59.140Z,36.37
2023-05-16T17:30:27.067Z,36.70
2023-05-16T17:32:54.343Z,36.58
2023-05-16T17:35:21.317Z,36.29
2023-05-16T17:37:48.070Z,36.73
2023-05-16T17:40:17.462Z,36.27
2023-05-16T17:42:45.062Z,36.69
2023-05-16T17:45:16.443Z,36.66
2023-05-16T17:47:43.681Z,36.74
2023-05-16T17:50:10.999Z,36.46
2023-05-16T17:52:39.612Z,36.74
2023-05-16T17:55:08.687Z,36.40
2023-05-16T17:57:35.522Z,36.31
2023-05-16T18:00:05.191Z,36.42
2023-05-16T18:02:32.200Z,36.41
2023-05-16T18:04:59.624Z,36.57
2023-05-16T18:07:27.309Z,36.76
2023-05-16T18:09:54.666Z,36.92
2023-05-16T18:12:21.648Z,36.84
2023-05-16T18:14:48.689Z,36.89
2023-05-16T18:17:15.506Z,37.09
2023-05-16T18:19:42.464Z,36.87
2023-05-16T18:22:14.485Z,37.32
2023-05-16T18:24:41.339Z,36.98
2023-05-16T18:27:08.243Z,36.96
2023-05-16T18:29:35.447Z,37.14
2023-05-16T18:32:02.333Z,36.95
2023-05-16T18:34:29.257Z,37.07
2023-05-16T18:36:56.248Z,37.26
2023-05-16T18:39:23.109Z,37.07
2023-05-16T18:41:50.002Z,37.42
2023-05-16T18:44:17.329Z,37.18
2023-05-16T18:46:47.384Z,37.08
2023-05-16T18:49:14.359Z,37.53
2023-05-16T18:51:41.534Z,37.45
2023-05-16T18:54:08.590Z,37.40
2023-05-16T18:56:35.537Z,37.51
2023-05-16T18:59:04.925Z,37.33
2023-05-16T19:01:31.600Z,37.34
2023-05-16T19:03:58.658Z,37.45
2023-05-16T19:06:25.733Z,37.28
2023-05-16T19:08:52.657Z,37.34
2023-05-16T19:11:19.626Z,37.71
2023-05-16T19:13:47.439Z,37.56
2023-05-16T19:16:14.541Z,37.67
2023-05-16T19:18:41.640Z,37.68
2023-05-16T19:21:09.037Z,37.40
2023-05-16T19:23:36.018Z,37.45
2023-05-16T19:26:02.822Z,37.64
2023-05-16T19:28:30.170Z,37.67
2023-05-16T19:30:57.000Z,37.81
2023-05-16T19:33:23.804Z,37.57
2023-05-16T19:35:53.197Z,37.78
2023-05-16T19:38:20.286Z,37.56
2023-05-16T19:40:47.147Z,37.72
2023-05-16T19:43:14.019Z,37.66
2023-05-16T19:45:40.977Z,37.63
2023-05-16T19:48:08.496Z,37.98
2023-05-16T19:50:37.077Z,38.13
2023-05-16T19:53:04.375Z,38.06
2023-05-16T19:55:31.542Z,38.25
2023-05-16T19:57:58.784Z,38.28
2023-05-16T20:00:25.720Z,38.56
2023-05-16T20:02:52.990Z,38.76
2023-05-16T20:05:23.069Z,38.94
2023-05-16T20:07:50.682Z,38.86
2023-05-16T20:10:18.709Z,39.03
2023-05-16T20:12:46.691Z,39.14
2023-05-16T20:15:13.523Z,39.12
2023-05-16T20:17:40.720Z,39.31
2023-05-16T20:20:09.154Z,39.28
2023-05-16T20:22:39.038Z,39.32
2023-05-16T20:25:09.781Z,39.54
2023-05-16T20:27:36.621Z,39.84
2023-05-16T20:30:04.341Z,39.75
2023-05-16T20:32:31.368Z,39.78
2023-05-16T20:34:58.288Z,39.77
2023-05-16T20:37:27.955Z,39.95
2023-05-16T20:39:54.999Z,39.95
2023-05-16T20:42:22.166Z,40.03
2023-05-16T20:44:49.062Z,39.96
2023-05-16T20:47:17.233Z,40.00
2023-05-16T20:49:44.074Z,40.19
2023-05-16T20:52:11.163Z,40.37
2023-05-16T20:54:38.100Z,40.43
2023-05-16T20:57:05.758Z,40.30
2023-05-16T20:59:32.971Z,40.35
2023-05-16T21:02:00.404Z,40.43
2023-05-16T21:04:27.233Z,40.49
2023-05-16T21:06:54.514Z,40.56
2023-05-16T21:09:21.533Z,40.69
2023-05-16T21:11:48.526Z,40.59
2023-05-16T21:14:15.412Z,40.84
2023-05-16T21:16:42.509Z,40.65
2023-05-16T21:19:09.346Z,40.98
2023-05-16T21:21:36.244Z,41.13
2023-05-16T21:24:04.007Z,41.07
2023-05-16T21:26:30.859Z,41.20
2023-05-16T21:28:57.661Z,41.17
2023-05-16T21:31:24.526Z,41.28
2023-05-16T21:33:52.517Z,41.45
2023-05-16T21:36:20.287Z,41.52
2023-05-16T21:38:47.473Z,41.69
2023-05-16T21:41:14.699Z,41.82
2023-05-16T21:43:41.530Z,41.76
2023-05-16T21:46:08.549Z,41.81
2023-05-16T21:48:35.757Z,42.10
2023-05-16T21:51:02.699Z,41.82
2023-05-16T21:53:29.597Z,42.17
2023-05-16T21:55:56.591Z,42.37
2023-05-16T21:58:23.852Z,42.27
2023-05-16T22:00:51.070Z,42.36
2023-05-16T22:03:21.075Z,42.36
2023-05-16T22:05:48.274Z,42.40
2023-05-16T22:08:15.249Z,42.37
2023-05-16T22:10:42.480Z,42.54
2023-05-16T22:13:09.343Z,42.69
2023-05-16T22:15:36.293Z,42.62
2023-05-16T22:18:03.371Z,42.80
2023-05-16T22:20:30.278Z,42.96
2023-05-16T22:22:57.261Z,42.69
2023-05-16T22:25:24.217Z,42.79
2023-05-16T22:27:51.027Z,42.92
2023-05-16T22:30:20.427Z,43.01
2023-05-16T22:32:47.395Z,42.92
2023-05-16T22:35:14.478Z,42.72
2023-05-16T22:37:41.394Z,42.93
2023-05-16T22:40:08.950Z,43.04
2023-05-16T22:42:35.818Z,43.08
2023-05-16T22:45:04.483Z,43.04
2023-05-16T22:47:31.483Z,42.98
2023-05-16T22:49:58.264Z,43.08
2023-05-16T22:52:25.239Z,43.04
2023-05-16T22:54:52.167Z,43.21
2023-05-16T22:57:19.115Z,43.16
2023-05-16T22:59:46.017Z,43.20
2023-05-16T23:02:12.861Z,43.13
2023-05-16T23:04:39.773Z,43.29
2023-05-16T23:07:06.756Z,43.37
2023-05-16T23:09:33.573Z,43.42
2023-05-16T23:12:00.715Z,43.52
2023-05-16T23:14:28.053Z,43.48
2023-05-16T23:16:54.819Z,43.72
2023-05-16T23:19:21.826Z,43.73
2023-05-16T23:21:48.959Z,43.92
2023-05-16T23:24:15.869Z,44.07
2023-05-16T23:26:42.679Z,44.02
2023-05-16T23:29:09.793Z,44.20
2023-05-16T23:31:37.806Z,44.32
2023-05-16T23:34:04.715Z,44.29
2023-05-16T23:36:31.805Z,44.53
2023-05-16T23:38:58.596Z,44.30
2023-05-16T23:41:25.491Z,44.76
2023-05-16T23:43:52.477Z,44.91
2023-05-16T23:46:19.256Z,44.77
2023-05-16T23:48:46.218Z,45.05
2023-05-16T23:51:13.327Z,45.19
2023-05-16T23:53:40.084Z,45.40
2023-05-16T23:56:07.229Z,45.38
2023-05-16T23:58:34.062Z,45.40
